createdAt,value
2017-06-03T00:01:40.676Z,11.57
2017-06-03T00:04:08.171Z,11.53
2017-06-03T00:06:35.672Z,13.40
2017-06-03T00:09:03.159Z,13.73
2017-06-03T00:11:30.709Z,12.43
2017-06-03T00:13:58.188Z,12.23
2017-06-03T00:16:25.691Z,13.37
2017-06-03T00:18:53.938Z,12.90
2017-06-03T00:21:21.446Z,12.17
2017-06-03T00:23:48.931Z,11.27
2017-06-03T00:26:16.422Z,11.20
2017-06-03T00:28:44.672Z,12.07
2017-06-03T00:31:12.209Z,12.37
2017-06-03T00:33:39.689Z,13.00
2017-06-03T00:36:07.172Z,10.87
2017-06-03T00:38:34.678Z,11.30
2017-06-03T00:41:02.161Z,11.67
2017-06-03T00:43:29.660Z,11.73
2017-06-03T00:45:57.149Z,11.43
2017-06-03T00:48:24.647Z,10.87
2017-06-03T00:50:52.131Z,10.20
2017-06-03T00:53:19.636Z,11.37
2017-06-03T00:55:47.892Z,11.87
2017-06-03T00:58:15.390Z,11.67
2017-06-03T01:00:42.870Z,11.57
2017-06-03T01:03:10.351Z,12.80
2017-06-03T01:05:37.854Z,15.20
2017-06-03T01:08:05.334Z,14.03
2017-06-03T01:10:32.835Z,15.93
2017-06-03T01:13:00.314Z,15.30
2017-06-03T01:15:27.824Z,15.30
2017-06-03T01:17:55.310Z,14.97
2017-06-03T01:20:23.579Z,16.30
2017-06-03T01:22:51.829Z,15.37
2017-06-03T01:25:19.334Z,14.83
2017-06-03T01:27:46.827Z,16.87
2017-06-03T01:30:14.306Z,16.03
2017-06-03T01:32:41.803Z,17.70
2017-06-03T01:35:09.289Z,17.00
2017-06-03T01:37:36.786Z,17.20
2017-06-03T01:40:04.271Z,17.07
2017-06-03T01:42:31.772Z,15.30
2017-06-03T01:44:59.259Z,17.60
2017-06-03T01:47:26.757Z,15.53
2017-06-03T01:49:54.239Z,15.80
2017-06-03T01:52:21.739Z,15.27
2017-06-03T01:54:49.227Z,13.00
2017-06-03T01:57:16.743Z,15.70
2017-06-03T01:59:44.219Z,15.73
2017-06-03T02:02:11.698Z,15.30
2017-06-03T02:04:39.206Z,15.10
2017-06-03T02:07:06.690Z,14.87
2017-06-03T02:09:34.184Z,15.13
2017-06-03T02:12:01.659Z,15.67
2017-06-03T02:14:29.164Z,15.60
2017-06-03T02:16:56.651Z,15.27
2017-06-03T02:19:24.918Z,15.17
2017-06-03T02:21:53.180Z,14.43
2017-06-03T02:24:20.678Z,16.70
2017-06-03T02:26:48.154Z,18.93
2017-06-03T02:29:15.670Z,18.07
2017-06-03T02:31:43.915Z,18.27
2017-06-03T02:34:11.397Z,18.50
2017-06-03T02:36:39.663Z,19.60
2017-06-03T02:39:07.910Z,16.97
2017-06-03T02:41:35.418Z,17.00
2017-06-03T02:44:02.898Z,17.93
2017-06-03T02:46:30.399Z,18.80
2017-06-03T02:48:57.887Z,20.37
2017-06-03T02:51:25.388Z,17.77
2017-06-03T02:53:52.870Z,18.53
2017-06-03T02:56:21.130Z,17.57
2017-06-03T02:58:49.379Z,18.00
2017-06-03T03:01:16.883Z,20.43
2017-06-03T03:03:44.390Z,19.63
2017-06-03T03:06:11.901Z,20.23
2017-06-03T03:08:39.404Z,20.13
2017-06-03T03:11:06.890Z,20.33
2017-06-03T03:13:35.156Z,18.70
2017-06-03T03:16:03.410Z,18.93
2017-06-03T03:18:30.906Z,18.40
2017-06-03T03:20:58.390Z,18.70
2017-06-03T03:23:25.889Z,19.50
2017-06-03T03:25:54.142Z,17.67
2017-06-03T03:28:21.663Z,18.93
2017-06-03T03:30:49.144Z,17.50
2017-06-03T03:33:16.630Z,17.70
2017-06-03T03:35:44.897Z,17.70
2017-06-03T03:38:13.154Z,17.40
2017-06-03T03:40:40.663Z,16.40
2017-06-03T03:43:08.147Z,17.00
2017-06-03T03:45:35.652Z,16.20
2017-06-03T03:48:03.139Z,16.00
2017-06-03T03:50:30.640Z,16.17
2017-06-03T03:52:58.901Z,19.10
2017-06-03T03:55:26.418Z,19.87
2017-06-03T03:57:53.900Z,18.43
2017-06-03T04:00:21.379Z,18.13
2017-06-03T04:02:49.647Z,19.70
2017-06-03T04:05:17.912Z,20.63
2017-06-03T04:07:45.416Z,19.87
2017-06-03T04:10:12.901Z,17.77
2017-06-03T04:12:40.402Z,19.33
2017-06-03T04:15:07.885Z,16.73
2017-06-03T04:17:35.391Z,18.10
2017-06-03T04:20:02.871Z,18.17
2017-06-03T04:22:31.147Z,18.57
2017-06-03T04:24:58.626Z,19.40
2017-06-03T04:27:26.115Z,19.40
2017-06-03T04:29:53.621Z,18.30
2017-06-03T04:32:21.098Z,17.97
2017-06-03T04:34:48.601Z,16.43
2017-06-03T04:37:16.084Z,17.30
2017-06-03T04:39:43.579Z,18.60
2017-06-03T04:42:11.058Z,18.70
2017-06-03T04:44:38.559Z,19.60
2017-06-03T04:47:06.043Z,20.13
2017-06-03T04:49:33.549Z,19.07
2017-06-03T04:52:01.034Z,19.80
2017-06-03T04:54:28.559Z,19.60
2017-06-03T04:56:56.049Z,20.77
2017-06-03T04:59:23.534Z,20.87
2017-06-03T05:01:51.040Z,21.60
2017-06-03T05:04:18.538Z,20.07
2017-06-03T05:06:46.035Z,21.60
2017-06-03T05:09:13.533Z,22.93
2017-06-03T05:11:41.034Z,22.70
2017-06-03T05:14:09.287Z,21.57
2017-06-03T05:16:36.788Z,21.17
2017-06-03T05:19:04.268Z,22.10
2017-06-03T05:21:32.139Z,21.70
2017-06-03T05:23:59.619Z,21.60
2017-06-03T05:26:27.139Z,19.73
2017-06-03T05:28:54.619Z,21.20
2017-06-03T05:31:22.108Z,20.90
2017-06-03T05:33:49.610Z,22.07
2017-06-03T05:36:17.097Z,22.53
2017-06-03T05:38:45.363Z,22.77
2017-06-03T05:41:12.835Z,22.30
2017-06-03T05:43:41.103Z,22.63
2017-06-03T05:46:09.352Z,20.53
2017-06-03T05:48:36.851Z,18.57
2017-06-03T05:51:04.333Z,22.07
2017-06-03T05:53:31.813Z,21.30
2017-06-03T05:55:59.356Z,21.93
2017-06-03T05:58:26.844Z,21.17
2017-06-03T06:00:55.118Z,21.20
2017-06-03T06:03:23.362Z,21.50
2017-06-03T06:05:50.861Z,22.57
2017-06-03T06:08:18.350Z,20.67
2017-06-03T06:10:45.853Z,18.20
2017-06-03T06:13:14.102Z,20.33
2017-06-03T06:15:41.598Z,18.33
2017-06-03T06:18:09.843Z,18.77
2017-06-03T06:20:37.338Z,20.17
2017-06-03T06:23:04.826Z,18.53
2017-06-03T06:25:32.322Z,17.80
2017-06-03T06:28:00.565Z,17.60
2017-06-03T06:30:28.043Z,16.30
2017-06-03T06:32:56.318Z,18.30
2017-06-03T06:35:23.799Z,17.67
2017-06-03T06:37:51.302Z,17.57
2017-06-03T06:40:18.783Z,17.33
2017-06-03T06:42:46.279Z,17.57
2017-06-03T06:45:13.771Z,17.70
2017-06-03T06:47:41.267Z,17.37
2017-06-03T06:50:08.746Z,18.07
2017-06-03T06:52:36.263Z,17.70
2017-06-03T06:55:04.511Z,18.50
2017-06-03T06:57:31.995Z,17.37
2017-06-03T07:00:00.256Z,18.30
2017-06-03T07:02:28.546Z,17.67
2017-06-03T07:04:56.043Z,18.13
2017-06-03T07:07:23.529Z,16.83
2017-06-03T07:09:51.023Z,16.80
2017-06-03T07:12:18.511Z,16.63
2017-06-03T07:14:46.006Z,15.83
2017-06-03T07:17:14.252Z,18.30
2017-06-03T07:19:41.756Z,17.20
2017-06-03T07:22:09.238Z,16.30
2017-06-03T07:24:36.738Z,18.37
2017-06-03T07:27:04.990Z,16.43
2017-06-03T07:29:32.482Z,16.33
2017-06-03T07:31:59.963Z,16.80
2017-06-03T07:34:27.460Z,17.70
2017-06-03T07:36:54.943Z,18.80
2017-06-03T07:39:22.434Z,18.13
2017-06-03T07:41:49.916Z,18.63
2017-06-03T07:44:17.442Z,18.03
2017-06-03T07:46:44.931Z,18.37
2017-06-03T07:49:12.415Z,17.67
2017-06-03T07:51:40.675Z,17.70
2017-06-03T07:54:08.923Z,20.90
2017-06-03T07:56:36.430Z,20.27
2017-06-03T07:59:03.903Z,18.17
2017-06-03T08:01:31.399Z,17.40
2017-06-03T08:03:58.874Z,16.67
2017-06-03T08:06:27.148Z,16.93
2017-06-03T08:08:55.394Z,17.57
2017-06-03T08:11:22.919Z,17.57
2017-06-03T08:13:50.398Z,16.60
2017-06-03T08:16:17.923Z,18.70
2017-06-03T08:18:45.459Z,17.67
2017-06-03T08:21:12.931Z,18.73
2017-06-03T08:23:40.438Z,19.27
2017-06-03T08:26:08.691Z,15.10
2017-06-03T08:28:36.192Z,17.43
2017-06-03T08:31:03.684Z,17.03
2017-06-03T08:33:31.222Z,15.60
2017-06-03T08:35:58.719Z,14.87
2017-06-03T08:38:26.232Z,17.50
2017-06-03T08:40:53.719Z,15.03
2017-06-03T08:43:21.211Z,13.83
2017-06-03T08:45:48.710Z,15.47
2017-06-03T08:48:16.195Z,14.00
2017-06-03T08:50:43.688Z,14.07
2017-06-03T08:53:11.170Z,15.50
2017-06-03T08:55:38.662Z,14.90
2017-06-03T08:58:06.139Z,15.17
2017-06-03T09:00:34.403Z,15.23
2017-06-03T09:03:02.652Z,16.50
2017-06-03T09:05:30.148Z,15.90
2017-06-03T09:07:57.638Z,15.73
2017-06-03T09:10:25.115Z,14.63
2017-06-03T09:12:52.614Z,15.93
2017-06-03T09:15:20.084Z,13.30
2017-06-03T09:17:47.583Z,14.63
2017-06-03T09:20:15.060Z,13.60
2017-06-03T09:22:43.486Z,11.83
2017-06-03T09:25:10.966Z,10.73
2017-06-03T09:27:38.466Z,13.90
2017-06-03T09:30:05.946Z,13.37
2017-06-03T09:32:33.451Z,12.80
2017-06-03T09:35:01.703Z,13.83
2017-06-03T09:37:29.219Z,13.90
2017-06-03T09:39:56.699Z,15.30
2017-06-03T09:42:24.174Z,15.87
2017-06-03T09:44:51.688Z,12.90
2017-06-03T09:47:19.167Z,13.40
2017-06-03T09:49:46.678Z,11.97
2017-06-03T09:52:14.158Z,13.93
2017-06-03T09:54:41.651Z,14.60
2017-06-03T09:57:09.130Z,13.57
2017-06-03T09:59:37.390Z,13.60
2017-06-03T10:02:05.643Z,12.50
2017-06-03T10:04:33.150Z,10.83
2017-06-03T10:07:00.632Z,11.37
2017-06-03T10:09:28.114Z,9.30
2017-06-03T10:11:55.607Z,8.50
2017-06-03T10:14:23.082Z,9.17
2017-06-03T10:16:51.141Z,9.67
2017-06-03T10:19:18.619Z,7.60
2017-06-03T10:21:46.115Z,8.10
2017-06-03T10:24:14.362Z,7.53
2017-06-03T10:26:41.851Z,8.33
2017-06-03T10:29:10.090Z,8.07
2017-06-03T10:31:37.584Z,8.47
2017-06-03T10:34:05.058Z,9.00
2017-06-03T10:36:32.537Z,8.40
2017-06-03T10:39:00.032Z,8.87
2017-06-03T10:41:28.281Z,7.90
2017-06-03T10:43:55.775Z,6.47
2017-06-03T10:46:23.247Z,7.10
2017-06-03T10:48:50.746Z,6.50
2017-06-03T10:51:18.226Z,6.50
2017-06-03T10:53:46.492Z,6.10
2017-06-03T10:56:14.735Z,5.53
2017-06-03T10:58:42.232Z,6.10
2017-06-03T11:01:10.479Z,6.50
2017-06-03T11:03:37.956Z,6.13
2017-06-03T11:06:06.218Z,6.50
2017-06-03T11:08:34.466Z,6.17
2017-06-03T11:11:01.960Z,6.43
2017-06-03T11:13:30.201Z,6.17
2017-06-03T11:15:57.699Z,7.40
2017-06-03T11:18:25.164Z,7.87
2017-06-03T11:20:52.659Z,7.53
2017-06-03T11:23:20.138Z,7.17
2017-06-03T11:25:48.431Z,7.23
2017-06-03T11:28:15.905Z,6.50
2017-06-03T11:30:43.378Z,6.60
2017-06-03T11:33:10.878Z,6.40
2017-06-03T11:35:39.130Z,7.80
2017-06-03T11:38:06.623Z,7.83
2017-06-03T11:40:34.915Z,7.87
2017-06-03T11:43:02.403Z,7.33
2017-06-03T11:45:29.874Z,6.67
2017-06-03T11:47:57.368Z,6.30
2017-06-03T11:50:24.838Z,8.43
2017-06-03T11:52:52.339Z,7.00
2017-06-03T11:55:19.808Z,5.80
2017-06-03T11:57:48.082Z,6.20
2017-06-03T12:00:16.322Z,5.90
2017-06-03T12:02:43.798Z,6.37
2017-06-03T12:05:11.283Z,7.37
2017-06-03T12:07:38.761Z,6.70
2017-06-03T12:10:06.258Z,7.20
2017-06-03T12:12:33.738Z,8.20
2017-06-03T12:15:01.239Z,6.73
2017-06-03T12:17:28.719Z,7.00
2017-06-03T12:19:56.214Z,9.87
2017-06-03T12:22:24.458Z,10.50
2017-06-03T12:24:52.727Z,11.93
2017-06-03T12:27:20.982Z,8.80
2017-06-03T12:29:48.475Z,7.80
2017-06-03T12:32:15.948Z,8.47
2017-06-03T12:34:43.426Z,9.27
2017-06-03T12:37:10.926Z,8.30
2017-06-03T12:39:39.173Z,9.03
2017-06-03T12:42:06.687Z,9.20
2017-06-03T12:44:34.171Z,9.10
2017-06-03T12:47:01.670Z,8.63
2017-06-03T12:49:29.151Z,7.30
2017-06-03T12:51:56.638Z,7.80
2017-06-03T12:54:24.115Z,6.37
2017-06-03T12:56:51.629Z,8.10
2017-06-03T12:59:19.119Z,8.43
2017-06-03T13:01:46.598Z,6.67
2017-06-03T13:04:15.074Z,6.87
2017-06-03T13:06:42.559Z,6.47
2017-06-03T13:09:10.056Z,6.40
2017-06-03T13:11:37.539Z,6.03
2017-06-03T13:14:05.030Z,6.00
2017-06-03T13:16:32.507Z,6.37
2017-06-03T13:19:00.002Z,5.77
2017-06-03T13:21:27.479Z,5.70
2017-06-03T13:23:55.022Z,5.87
2017-06-03T13:26:22.499Z,5.83
2017-06-03T13:28:49.994Z,5.47
2017-06-03T13:31:17.491Z,5.47
2017-06-03T13:33:44.967Z,5.90
2017-06-03T13:36:12.462Z,5.30
2017-06-03T13:38:39.942Z,5.63
2017-06-03T13:41:08.202Z,5.73
2017-06-03T13:43:36.443Z,5.43
2017-06-03T13:46:04.729Z,5.50
2017-06-03T13:48:32.227Z,5.50
2017-06-03T13:51:00.302Z,5.30
2017-06-03T13:53:27.786Z,5.43
2017-06-03T13:55:55.284Z,5.40
2017-06-03T13:58:23.527Z,5.37
2017-06-03T14:00:51.007Z,6.27
2017-06-03T14:03:19.266Z,6.07
2017-06-03T14:05:46.750Z,6.80
2017-06-03T14:08:15.002Z,7.97
2017-06-03T14:10:42.475Z,5.17
2017-06-03T14:13:10.735Z,5.97
2017-06-03T14:15:38.977Z,5.00
2017-06-03T14:18:06.467Z,5.47
2017-06-03T14:20:34.710Z,4.90
2017-06-03T14:23:02.204Z,4.87
2017-06-03T14:25:29.690Z,4.53
2017-06-03T14:27:57.176Z,4.73
2017-06-03T14:30:24.662Z,4.20
2017-06-03T14:32:52.903Z,4.17
2017-06-03T14:35:20.390Z,4.20
2017-06-03T14:37:47.859Z,4.20
2017-06-03T14:40:15.358Z,4.17
2017-06-03T14:42:42.838Z,4.50
2017-06-03T14:45:10.328Z,3.37
2017-06-03T14:47:37.824Z,4.40
2017-06-03T14:50:05.315Z,4.17
2017-06-03T14:52:33.558Z,3.70
2017-06-03T14:55:01.054Z,3.93
2017-06-03T14:57:28.536Z,4.30
2017-06-03T14:59:56.047Z,4.07
2017-06-03T15:02:24.292Z,4.30
2017-06-03T15:04:51.766Z,3.70
2017-06-03T15:07:19.271Z,4.17
2017-06-03T15:09:46.742Z,3.73
2017-06-03T15:12:14.257Z,4.20
2017-06-03T15:14:41.735Z,4.07
2017-06-03T15:17:09.214Z,4.50
2017-06-03T15:19:36.769Z,3.97
2017-06-03T15:22:04.243Z,4.47
2017-06-03T15:24:31.740Z,5.00
2017-06-03T15:26:59.289Z,6.33
2017-06-03T15:29:26.763Z,5.53
2017-06-03T15:31:54.243Z,6.17
2017-06-03T15:34:21.744Z,4.93
2017-06-03T15:36:49.989Z,5.93
2017-06-03T15:39:17.494Z,5.97
2017-06-03T15:41:44.998Z,5.77
2017-06-03T15:44:12.475Z,7.30
2017-06-03T15:46:39.955Z,5.23
2017-06-03T15:49:07.472Z,6.03
2017-06-03T15:51:35.711Z,8.03
2017-06-03T15:54:03.182Z,5.00
2017-06-03T15:56:30.680Z,6.30
2017-06-03T15:58:58.162Z,5.93
2017-06-03T16:01:25.664Z,5.47
2017-06-03T16:03:53.898Z,5.47
2017-06-03T16:06:21.371Z,6.07
2017-06-03T16:08:48.866Z,5.13
2017-06-03T16:11:16.344Z,5.83
2017-06-03T16:13:43.855Z,4.00
2017-06-03T16:16:12.103Z,4.13
2017-06-03T16:18:39.578Z,4.07
2017-06-03T16:21:07.844Z,4.80
2017-06-03T16:23:35.321Z,4.57
2017-06-03T16:26:02.831Z,4.77
2017-06-03T16:28:30.308Z,4.50
2017-06-03T16:30:57.786Z,5.07
2017-06-03T16:33:26.049Z,4.50
2017-06-03T16:35:53.550Z,5.33
2017-06-03T16:38:21.062Z,4.57
2017-06-03T16:40:49.307Z,4.97
2017-06-03T16:43:16.790Z,4.83
2017-06-03T16:45:45.067Z,5.17
2017-06-03T16:48:12.576Z,4.73
2017-06-03T16:50:40.086Z,5.40
2017-06-03T16:53:07.574Z,5.10
2017-06-03T16:55:35.048Z,4.80
2017-06-03T16:58:02.544Z,5.80
2017-06-03T17:00:30.787Z,5.20
2017-06-03T17:02:58.295Z,5.23
2017-06-03T17:05:25.770Z,5.60
2017-06-03T17:07:53.246Z,5.40
2017-06-03T17:10:20.753Z,6.13
2017-06-03T17:12:48.240Z,5.27
2017-06-03T17:15:15.742Z,5.30
2017-06-03T17:17:43.227Z,5.23
2017-06-03T17:20:10.711Z,4.70
2017-06-03T17:22:38.204Z,4.93
2017-06-03T17:25:05.691Z,4.90
2017-06-03T17:27:33.189Z,4.67
2017-06-03T17:30:00.669Z,4.80
2017-06-03T17:32:28.911Z,4.03
2017-06-03T17:34:56.398Z,4.80
2017-06-03T17:37:24.647Z,5.30
2017-06-03T17:39:52.162Z,5.23
2017-06-03T17:42:19.639Z,5.33
2017-06-03T17:44:47.132Z,5.37
2017-06-03T17:47:15.415Z,5.17
2017-06-03T17:49:42.896Z,5.87
2017-06-03T17:52:10.399Z,6.00
2017-06-03T17:54:37.876Z,6.73
2017-06-03T17:57:05.363Z,8.07
2017-06-03T17:59:32.848Z,6.57
2017-06-03T18:02:00.336Z,6.93
2017-06-03T18:04:27.874Z,6.50
2017-06-03T18:06:56.111Z,6.43
2017-06-03T18:09:23.586Z,7.20
2017-06-03T18:11:51.075Z,7.20
2017-06-03T18:14:18.543Z,6.47
2017-06-03T18:16:46.058Z,6.10
2017-06-03T18:19:13.539Z,6.90
2017-06-03T18:21:41.020Z,6.70
2017-06-03T18:24:08.512Z,7.23
2017-06-03T18:26:35.986Z,7.07
2017-06-03T18:29:04.244Z,7.40
2017-06-03T18:31:31.720Z,7.17
2017-06-03T18:33:59.994Z,6.90
2017-06-03T18:36:28.241Z,8.57
2017-06-03T18:38:55.718Z,7.67
2017-06-03T18:41:23.222Z,8.07
2017-06-03T18:43:50.704Z,8.83
2017-06-03T18:46:18.238Z,8.50
2017-06-03T18:48:45.715Z,9.70
2017-06-03T18:51:13.200Z,8.00
2017-06-03T18:53:40.696Z,8.60
2017-06-03T18:56:08.174Z,7.90
2017-06-03T18:58:35.691Z,8.23
2017-06-03T19:01:03.171Z,7.67
2017-06-03T19:03:30.649Z,8.40
2017-06-03T19:05:58.149Z,9.07
2017-06-03T19:08:25.635Z,8.00
2017-06-03T19:10:53.140Z,8.50
2017-06-03T19:13:20.628Z,7.90
2017-06-03T19:15:48.115Z,7.70
2017-06-03T19:18:15.615Z,7.63
2017-06-03T19:20:43.104Z,7.87
2017-06-03T19:23:10.903Z,9.07
2017-06-03T19:25:39.160Z,9.17
2017-06-03T19:28:06.642Z,9.03
2017-06-03T19:30:34.910Z,9.87
2017-06-03T19:33:03.166Z,12.40
2017-06-03T19:35:30.686Z,9.83
2017-06-03T19:37:58.167Z,10.43
2017-06-03T19:40:25.648Z,10.10
2017-06-03T19:42:53.918Z,11.43
2017-06-03T19:45:21.403Z,11.93
2017-06-03T19:47:48.924Z,11.80
2017-06-03T19:50:17.181Z,12.10
2017-06-03T19:52:44.678Z,11.97
2017-06-03T19:55:12.174Z,13.50
2017-06-03T19:57:39.661Z,13.30
2017-06-03T20:00:07.963Z,14.53
2017-06-03T20:02:35.482Z,15.00
2017-06-03T20:05:03.742Z,15.30
2017-06-03T20:07:31.255Z,16.87
2017-06-03T20:09:58.739Z,16.13
2017-06-03T20:12:26.251Z,12.77
2017-06-03T20:14:53.745Z,14.80
2017-06-03T20:17:21.226Z,14.13
2017-06-03T20:19:48.726Z,11.50
2017-06-03T20:22:16.213Z,9.60
2017-06-03T20:24:43.715Z,11.20
2017-06-03T20:27:11.196Z,8.10
2017-06-03T20:29:38.683Z,6.27
2017-06-03T20:32:06.178Z,5.90
2017-06-03T20:34:33.671Z,6.43
2017-06-03T20:37:01.188Z,5.93
2017-06-03T20:39:28.667Z,6.50
2017-06-03T20:41:56.152Z,6.77
2017-06-03T20:44:23.638Z,7.70
2017-06-03T20:46:51.884Z,8.53
2017-06-03T20:49:19.405Z,7.77
2017-06-03T20:51:46.887Z,8.23
2017-06-03T20:54:14.365Z,8.37
2017-06-03T20:56:41.859Z,7.40
2017-06-03T20:59:09.336Z,8.93
2017-06-03T21:01:36.854Z,9.00
2017-06-03T21:04:04.339Z,8.33
2017-06-03T21:06:31.827Z,7.80
2017-06-03T21:08:59.335Z,7.90
2017-06-03T21:11:26.819Z,9.23
2017-06-03T21:13:54.332Z,9.50
2017-06-03T21:16:21.810Z,8.03
2017-06-03T21:18:49.295Z,9.53
2017-06-03T21:21:16.796Z,9.47
2017-06-03T21:23:44.274Z,8.30
2017-06-03T21:26:11.770Z,9.40
2017-06-03T21:28:39.244Z,10.47
2017-06-03T21:31:07.503Z,9.80
2017-06-03T21:33:35.022Z,8.57
2017-06-03T21:36:03.134Z,8.43
2017-06-03T21:38:30.662Z,10.17
2017-06-03T21:40:58.153Z,9.17
2017-06-03T21:43:26.398Z,7.80
2017-06-03T21:45:53.892Z,6.33
2017-06-03T21:48:21.377Z,5.33
2017-06-03T21:50:48.870Z,5.40
2017-06-03T21:53:16.351Z,5.20
2017-06-03T21:55:43.874Z,5.47
2017-06-03T21:58:11.361Z,5.43
2017-06-03T22:00:38.842Z,6.40
2017-06-03T22:03:06.343Z,6.50
2017-06-03T22:05:33.829Z,6.30
2017-06-03T22:08:01.326Z,5.63
2017-06-03T22:10:28.810Z,6.10
2017-06-03T22:12:56.291Z,6.00
2017-06-03T22:15:23.794Z,6.00
2017-06-03T22:17:51.280Z,6.27
2017-06-03T22:20:19.545Z,6.03
2017-06-03T22:22:47.024Z,6.47
2017-06-03T22:25:14.507Z,7.23
2017-06-03T22:27:42.009Z,6.77
2017-06-03T22:30:09.486Z,6.50
2017-06-03T22:32:36.985Z,6.40
2017-06-03T22:35:04.464Z,7.63
2017-06-03T22:37:31.947Z,7.43
2017-06-03T22:39:59.451Z,6.77
2017-06-03T22:42:26.933Z,6.17
2017-06-03T22:44:54.427Z,7.10
2017-06-03T22:47:21.899Z,7.27
2017-06-03T22:49:49.395Z,7.80
2017-06-03T22:52:16.870Z,7.97
2017-06-03T22:54:45.114Z,7.87
2017-06-03T22:57:12.602Z,7.77
2017-06-03T22:59:40.845Z,7.60
2017-06-03T23:02:08.340Z,7.10
2017-06-03T23:04:35.859Z,7.77
2017-06-03T23:07:03.368Z,7.77
2017-06-03T23:09:30.849Z,7.63
2017-06-03T23:11:58.323Z,8.10
2017-06-03T23:14:26.772Z,7.40
2017-06-03T23:16:54.265Z,7.30
2017-06-03T23:19:21.762Z,9.10
2017-06-03T23:21:49.247Z,7.73
2017-06-03T23:24:16.756Z,7.60
2017-06-03T23:26:44.234Z,8.10
2017-06-03T23:29:11.720Z,7.57
2017-06-03T23:31:39.212Z,8.60
2017-06-03T23:34:07.456Z,8.20
2017-06-03T23:36:34.953Z,8.97
2017-06-03T23:39:02.431Z,8.50
2017-06-03T23:41:29.954Z,8.70
2017-06-03T23:43:57.458Z,10.10
2017-06-03T23:46:24.938Z,9.87
2017-06-03T23:48:52.440Z,10.27
2017-06-03T23:51:19.924Z,10.50
2017-06-03T23:53:47.427Z,8.63
2017-06-03T23:56:14.912Z,9.47
2017-06-03T23:58:42.398Z,10.00
